Time;durP1;ratioP1;P1;durP2;ratioP2;P2;SDS_P1;SDS_P2;PMS_P1;PMS_P2;Temp;Humidity;BMP_temperature;BMP_pressure;BME280_temperature;BME280_humidity;BME280_pressure;Samples;Min_cycle;Max_cycle;Signal;HPM_P1;HPM_P2
2024/01/31 00:00:46;;;;;;;28.33;15.83;;;2.40;99.90;;;;;;5846843;23;20650;-85
2024/01/31 00:25:47;;;;;;;23.27;15.00;;;2.40;99.90;;;;;;5952948;23;20472;-84
2024/01/31 00:46:05;;;;;;;24.17;14.10;;;2.30;99.90;;;;;;5547843;24;20728;-85
2024/01/31 01:21:21;;;;;;;21.73;13.83;;;1.60;99.90;;;;;;5701913;24;20320;-85
2024/01/31 01:47:08;;;;;;;20.27;12.50;;;1.70;99.90;;;;;;5587055;24;20230;-84
2024/01/31 02:12:29;;;;;;;20.57;12.77;;;1.50;99.90;;;;;;5742883;24;20722;-86
2024/01/31 02:37:46;;;;;;;19.87;12.30;;;1.30;99.90;;;;;;5507744;25;20531;-83
2024/01/31 03:17:55;;;;;;;21.57;13.50;;;0.70;99.90;;;;;;5732304;23;20707;-85
2024/01/31 03:43:43;;;;;;;23.73;13.77;;;1.20;99.90;;;;;;5783140;24;20182;-83
2024/01/31 04:04:07;;;;;;;24.83;14.10;;;1.30;99.90;;;;;;5610113;24;20612;-86
2024/01/31 04:34:34;;;;;;;20.60;13.33;;;2.30;99.90;;;;;;5791405;24;20233;-84
2024/01/31 05:20:16;;;;;;;20.73;14.20;;;3.30;99.90;;;;;;5765818;24;20172;-86
2024/01/31 05:40:38;;;;;;;22.63;14.70;;;3.70;99.90;;;;;;5838098;24;20170;-87
2024/01/31 06:11:04;;;;;;;23.20;16.27;;;3.90;99.90;;;;;;5861514;23;20209;-84
2024/01/31 06:15:25;;;;;;;25.73;15.27;;;3.90;99.90;;;;;;5815574;24;20737;-84
2024/01/31 06:35:59;;;;;;;28.90;17.57;;;4.10;99.90;;;;;;5848445;24;20325;-84
2024/01/31 07:06:08;;;;;;;29.77;17.63;;;4.10;99.90;;;;;;5602464;25;20229;-84
2024/01/31 07:26:55;;;;;;;32.97;18.57;;;4.70;99.90;;;;;;5506061;25;20219;-82
2024/01/31 07:57:19;;;;;;;30.67;18.53;;;5.10;99.90;;;;;;5670247;24;20186;-82
2024/01/31 08:22:21;;;;;;;31.27;19.17;;;5.90;99.90;;;;;;5660662;24;20262;-80
2024/01/31 08:48:01;;;;;;;27.27;17.97;;;6.30;99.90;;;;;;5786704;24;20296;-83
2024/01/31 09:08:12;;;;;;;29.37;19.10;;;6.60;99.90;;;;;;5718413;24;20233;-81
2024/01/31 09:33:59;;;;;;;29.67;18.67;;;7.20;98.90;;;;;;5720712;24;20929;-84
2024/01/31 10:34:31;;;;;;;24.23;16.13;;;8.20;96.00;;;;;;5639144;24;20615;-84
2024/01/31 10:54:57;;;;;;;26.37;17.93;;;8.50;94.50;;;;;;5827082;24;20232;-84
2024/01/31 11:20:02;;;;;;;25.67;16.90;;;8.20;97.30;;;;;;5819414;24;20708;-84
2024/01/31 11:40:06;;;;;;;28.80;17.33;;;8.00;99.90;;;;;;5763106;24;20614;-85
2024/01/31 12:01:02;;;;;;;21.97;15.17;;;8.10;99.90;;;;;;5937523;23;20190;-86
2024/01/31 12:20:49;;;;;;;22.07;13.80;;;8.50;99.30;;;;;;5940764;23;20525;-84
2024/01/31 12:46:27;;;;;;;18.40;12.47;;;8.50;98.80;;;;;;5919760;23;20170;-85
2024/01/31 13:16:50;;;;;;;17.80;12.00;;;8.40;99.90;;;;;;5585323;25;20191;-86
2024/01/31 13:47:49;;;;;;;15.23;10.50;;;7.50;99.90;;;;;;5779147;24;20282;-86
2024/01/31 13:51:58;;;;;;;15.33;11.20;;;7.40;99.90;;;;;;5642497;24;20589;-87
2024/01/31 14:38:09;;;;;;;22.93;15.93;;;7.00;99.90;;;;;;5693861;24;20188;-85
2024/01/31 15:03:36;;;;;;;23.63;17.50;;;7.20;99.90;;;;;;5685205;24;20856;-87
2024/01/31 15:34:09;;;;;;;23.10;16.30;;;7.10;99.90;;;;;;5674977;24;20326;-88
2024/01/31 16:14:30;;;;;;;20.60;14.60;;;7.10;99.90;;;;;;5805754;24;20261;-85
2024/01/31 16:45:01;;;;;;;17.90;15.00;;;7.10;99.90;;;;;;5862548;24;20220;-86
2024/01/31 17:05:27;;;;;;;21.57;15.17;;;7.00;99.90;;;;;;5907108;24;20206;-87
2024/01/31 18:41:18;;;;;;;24.00;16.87;;;6.40;99.90;;;;;;5744450;24;20182;-85
2024/01/31 19:06:57;;;;;;;19.03;14.77;;;6.00;99.90;;;;;;5845343;23;20175;-86
2024/01/31 20:13:00;;;;;;;13.90;9.90;;;5.70;99.90;;;;;;5792257;24;20179;-86
2024/01/31 20:33:19;;;;;;;12.67;9.20;;;5.60;99.90;;;;;;5785172;24;20331;-87
2024/01/31 20:58:36;;;;;;;15.83;10.90;;;5.60;99.90;;;;;;5775878;24;20580;-87
2024/01/31 21:13:43;;;;;;;16.00;11.50;;;5.60;99.90;;;;;;6108258;23;20375;31
2024/01/31 21:54:21;;;;;;;13.33;10.13;;;4.80;99.90;;;;;;5826483;24;20245;-87
2024/01/31 22:24:10;;;;;;;15.67;10.63;;;5.20;99.90;;;;;;5760554;24;21057;-85
2024/01/31 22:45:04;;;;;;;13.40;10.27;;;5.00;99.90;;;;;;5680737;24;20178;-87
2024/01/31 23:20:30;;;;;;;14.53;9.57;;;5.00;99.90;;;;;;5719197;24;20601;-84
